Time;durP1;ratioP1;P1;durP2;ratioP2;P2;SDS_P1;SDS_P2;PMS_P1;PMS_P2;Temp;Humidity;BMP_temperature;BMP_pressure;BME280_temperature;BME280_humidity;BME280_pressure;Samples;Min_cycle;Max_cycle;Signal;HPM_P1;HPM_P2
2022/12/13 00:01:14;;;;;;;22.57;13.37;;;;;;;-2.45;99.54;100365.38;5024654;28;20068;-75
2022/12/13 00:03:40;;;;;;;23.27;14.13;;;;;;;-2.45;100.00;100367.09;5019374;28;20033;-75
2022/12/13 00:06:07;;;;;;;21.13;12.57;;;;;;;-2.44;99.18;100362.00;5022045;28;20514;-75
2022/12/13 00:08:32;;;;;;;21.00;13.07;;;;;;;-2.36;99.32;100370.06;5024762;28;20039;-75
2022/12/13 00:10:59;;;;;;;23.10;14.43;;;;;;;-2.32;99.86;100369.38;5023656;28;20134;-75
2022/12/13 00:13:25;;;;;;;21.43;13.07;;;;;;;-2.30;99.71;100367.75;5023473;28;20029;-75
2022/12/13 00:16:01;;;;;;;19.93;12.30;;;;;;;-2.31;99.11;100365.97;5024354;28;20729;-75
2022/12/13 00:18:27;;;;;;;21.77;13.47;;;;;;;-2.34;98.85;100368.41;5020196;28;20415;-75
2022/12/13 00:20:52;;;;;;;20.13;11.90;;;;;;;-2.39;98.51;100358.72;5023873;28;20120;-75
2022/12/13 00:23:18;;;;;;;20.23;12.77;;;;;;;-2.51;99.21;100364.25;5024186;28;20090;-75
2022/12/13 00:25:43;;;;;;;20.57;13.30;;;;;;;-2.61;98.79;100356.91;5022236;28;20041;-75
2022/12/13 00:28:10;;;;;;;20.93;12.90;;;;;;;-2.71;99.67;100360.78;5025877;28;20443;-75
2022/12/13 00:30:35;;;;;;;21.53;12.03;;;;;;;-2.79;99.80;100362.13;5023078;28;20088;-75
2022/12/13 00:33:00;;;;;;;21.10;13.00;;;;;;;-2.76;99.69;100364.84;5022762;28;20041;-74
2022/12/13 00:35:26;;;;;;;20.77;12.17;;;;;;;-2.77;99.58;100376.91;5023440;28;20029;-75
2022/12/13 00:37:52;;;;;;;20.50;11.80;;;;;;;-2.75;99.18;100364.03;5023375;28;20041;-75
2022/12/13 00:40:18;;;;;;;21.50;13.20;;;;;;;-2.72;99.67;100362.47;5027587;28;20069;-75
2022/12/13 00:42:43;;;;;;;19.73;11.63;;;;;;;-2.65;99.85;100361.94;5025718;28;20038;-75
2022/12/13 00:45:09;;;;;;;19.90;12.00;;;;;;;-2.55;99.72;100367.50;5021604;28;20801;-75
2022/12/13 00:47:35;;;;;;;22.13;12.87;;;;;;;-2.52;99.99;100368.50;5023926;28;20385;-75
2022/12/13 00:50:01;;;;;;;19.40;11.03;;;;;;;-2.48;99.33;100367.84;5021369;28;20056;-75
2022/12/13 00:52:26;;;;;;;20.50;12.30;;;;;;;-2.47;99.03;100369.59;5023462;28;20041;-76
2022/12/13 00:54:51;;;;;;;19.57;11.70;;;;;;;-2.35;99.84;100368.38;5022179;28;20037;-75
2022/12/13 00:57:17;;;;;;;19.67;12.17;;;;;;;-2.35;98.90;100365.78;5025461;28;20033;-75
2022/12/13 00:59:42;;;;;;;18.40;11.17;;;;;;;-2.32;97.94;100361.63;5022150;28;20037;-75
2022/12/13 01:02:07;;;;;;;18.87;11.03;;;;;;;-2.35;96.79;100366.66;5020970;28;20037;-75
2022/12/13 01:04:33;;;;;;;18.60;10.70;;;;;;;-2.32;97.29;100365.91;5023565;28;20037;-75
2022/12/13 01:06:58;;;;;;;19.03;10.97;;;;;;;-2.38;96.85;100369.13;5022530;28;20026;-75
2022/12/13 01:09:26;;;;;;;18.23;11.90;;;;;;;-2.35;97.03;100369.25;5023714;28;20033;-75
2022/12/13 01:11:56;;;;;;;16.93;10.07;;;;;;;-2.32;96.66;100359.03;5024958;28;20094;-75
2022/12/13 01:14:21;;;;;;;18.70;10.13;;;;;;;-2.29;96.57;100361.75;5018248;28;20038;-75
2022/12/13 01:16:47;;;;;;;20.03;11.43;;;;;;;-2.26;96.95;100364.47;5023009;28;20492;-75
2022/12/13 01:19:12;;;;;;;17.73;10.77;;;;;;;-2.25;96.38;100363.66;5018230;28;20140;-75
2022/12/13 01:21:38;;;;;;;17.30;11.33;;;;;;;-2.22;96.22;100358.63;5023070;28;20076;-75
2022/12/13 01:24:05;;;;;;;18.83;10.80;;;;;;;-2.29;95.61;100356.56;5021427;28;20033;-75
2022/12/13 01:26:31;;;;;;;18.83;10.87;;;;;;;-2.29;96.46;100353.13;5023492;28;20036;-75
2022/12/13 01:28:57;;;;;;;19.13;12.43;;;;;;;-2.23;96.92;100355.94;5016477;28;20034;-75
2022/12/13 01:31:22;;;;;;;16.47;10.60;;;;;;;-2.24;96.28;100344.72;5017626;28;20080;-75
2022/12/13 01:33:48;;;;;;;18.70;11.13;;;;;;;-2.24;95.94;100342.16;5022403;28;20033;-76
2022/12/13 01:36:16;;;;;;;17.77;10.77;;;;;;;-2.17;95.32;100342.41;5021215;28;20073;-75
2022/12/13 01:38:41;;;;;;;17.40;10.57;;;;;;;-2.18;96.04;100340.63;5023967;28;20033;-76
2022/12/13 01:41:07;;;;;;;16.27;9.03;;;;;;;-2.12;96.25;100343.47;5020433;28;20100;-75
2022/12/13 01:43:35;;;;;;;17.67;11.20;;;;;;;-2.17;96.40;100339.81;5023486;28;20037;-75
2022/12/13 01:46:01;;;;;;;18.13;11.20;;;;;;;-2.12;96.05;100341.78;5021834;28;20061;-75
2022/12/13 01:48:30;;;;;;;17.03;10.10;;;;;;;-2.03;96.23;100341.28;5022296;28;20092;-75
2022/12/13 01:51:01;;;;;;;16.20;10.03;;;;;;;-2.11;95.66;100342.66;5020435;28;20045;-75
2022/12/13 01:53:29;;;;;;;19.40;9.83;;;;;;;-2.22;95.88;100343.09;5017146;28;20112;-75
2022/12/13 01:56:03;;;;;;;16.37;9.87;;;;;;;-2.19;95.98;100344.06;5021489;28;20049;-75
2022/12/13 01:58:29;;;;;;;16.23;9.83;;;;;;;-2.21;96.17;100342.28;5024062;28;20037;-75
2022/12/13 02:00:55;;;;;;;16.93;10.57;;;;;;;-2.16;95.96;100346.75;5020327;28;20052;-75
2022/12/13 02:03:22;;;;;;;15.27;9.33;;;;;;;-2.05;96.23;100329.97;5021224;28;20084;-75
2022/12/13 02:05:56;;;;;;;17.10;9.97;;;;;;;-1.97;96.18;100328.59;5021457;28;20033;-74
2022/12/13 02:08:23;;;;;;;17.30;11.83;;;;;;;-1.96;95.43;100337.25;5023397;28;20087;-75
2022/12/13 02:10:48;;;;;;;18.00;10.70;;;;;;;-1.96;96.16;100330.38;5021295;28;20042;-75
2022/12/13 02:13:14;;;;;;;17.13;10.33;;;;;;;-1.90;95.83;100335.78;5019039;28;20038;-75
2022/12/13 02:15:54;;;;;;;19.53;10.27;;;;;;;-1.87;96.70;100330.72;5021406;28;20038;-75
2022/12/13 02:18:37;;;;;;;18.30;10.73;;;;;;;-1.88;95.28;100333.28;5017210;28;20102;-75
2022/12/13 02:21:20;;;;;;;18.05;10.52;;;;;;;-1.89;95.29;100331.50;5019829;28;20047;-75
2022/12/13 02:24:28;;;;;;;15.70;9.67;;;;;;;-1.93;95.67;100333.09;5020759;28;20034;-74
2022/12/13 02:27:09;;;;;;;18.30;11.20;;;;;;;-1.90;95.32;100329.75;5022796;28;20033;-75
2022/12/13 02:30:11;;;;;;;19.30;12.27;;;;;;;-1.92;94.61;100332.25;5016356;28;20022;-75
2022/12/13 02:32:55;;;;;;;19.05;11.68;;;;;;;-1.88;95.11;100330.69;5019691;28;20030;-75
2022/12/13 02:35:50;;;;;;;18.73;11.23;;;;;;;-1.85;95.40;100334.28;5017759;28;20038;-74
2022/12/13 02:38:28;;;;;;;19.27;11.93;;;;;;;-1.83;95.18;100322.28;5019524;28;20042;-75
2022/12/13 02:41:01;;;;;;;21.20;12.93;;;;;;;-1.80;95.35;100321.53;5017100;28;20033;-75
2022/12/13 02:43:50;;;;;;;19.97;12.30;;;;;;;-1.74;94.79;100324.34;5021670;28;20069;-75
2022/12/13 02:46:20;;;;;;;17.80;10.87;;;;;;;-1.88;94.54;100326.41;4971048;28;20060;-75
2022/12/13 02:48:47;;;;;;;18.57;11.67;;;;;;;-1.94;94.94;100323.53;5019853;28;20577;-75
2022/12/13 02:51:14;;;;;;;22.37;13.07;;;;;;;-1.94;95.32;100322.66;5017085;28;20033;-75
2022/12/13 02:53:41;;;;;;;18.70;11.60;;;;;;;-1.95;94.90;100320.91;5022023;28;20044;-75
2022/12/13 02:56:07;;;;;;;21.63;13.80;;;;;;;-1.94;94.74;100322.66;5021640;28;20030;-75
2022/12/13 02:58:38;;;;;;;17.70;11.73;;;;;;;-1.93;94.55;100314.09;5020556;28;20041;-75
2022/12/13 03:01:19;;;;;;;20.77;12.47;;;;;;;-1.94;94.67;100318.38;5023079;28;20099;-75
2022/12/13 03:03:55;;;;;;;19.13;12.10;;;;;;;-1.92;94.37;100323.63;5020240;28;20034;-75
2022/12/13 03:06:39;;;;;;;21.27;12.40;;;;;;;-1.99;95.16;100325.09;5017011;28;20038;-75
2022/12/13 03:09:43;;;;;;;19.67;12.77;;;;;;;-1.98;95.48;100321.66;5015939;28;20041;-75
2022/12/13 03:15:46;;;;;;;20.47;12.57;;;;;;;-1.82;94.93;100325.75;5016045;28;20053;-75
2022/12/13 03:18:16;;;;;;;19.97;13.23;;;;;;;-1.82;94.93;100318.88;5016012;28;20671;-75
2022/12/13 03:20:51;;;;;;;19.60;12.87;;;;;;;-1.88;93.29;100328.97;5022002;28;20495;-75
2022/12/13 03:23:17;;;;;;;19.60;11.83;;;;;;;-1.86;94.42;100322.16;5018550;28;20112;-74
2022/12/13 03:25:44;;;;;;;19.00;12.00;;;;;;;-1.86;94.11;100327.34;5025644;28;20037;-75
2022/12/13 03:28:11;;;;;;;17.53;11.40;;;;;;;-1.89;93.99;100327.19;5026960;28;20046;-74
2022/12/13 03:30:36;;;;;;;21.67;13.00;;;;;;;-2.00;93.12;100328.47;5027430;28;20491;-75
2022/12/13 03:33:02;;;;;;;19.80;12.17;;;;;;;-2.07;93.30;100319.59;5023907;28;20038;-75
2022/12/13 03:35:27;;;;;;;20.17;12.30;;;;;;;-2.00;93.93;100323.28;5025719;28;20542;-75
2022/12/13 03:37:53;;;;;;;18.47;11.50;;;;;;;-1.92;93.92;100314.13;5022467;28;20438;-75
2022/12/13 03:40:20;;;;;;;17.93;10.07;;;;;;;-1.92;93.33;100321.03;5023034;28;20484;-75
2022/12/13 03:42:45;;;;;;;16.33;10.03;;;;;;;-1.94;93.45;100315.78;5022737;28;20037;-75
2022/12/13 03:45:11;;;;;;;17.33;10.43;;;;;;;-1.89;93.62;100322.03;5025788;28;20229;-75
2022/12/13 03:47:36;;;;;;;17.60;10.10;;;;;;;-1.94;92.54;100317.50;5022461;28;20042;-75
2022/12/13 03:50:02;;;;;;;19.47;11.03;;;;;;;-2.04;92.55;100316.25;5025722;28;20164;-75
2022/12/13 03:52:27;;;;;;;17.97;11.13;;;;;;;-2.02;93.30;100317.16;5023650;28;20033;-75
2022/12/13 03:54:53;;;;;;;19.83;11.90;;;;;;;-2.08;93.36;100311.75;5024303;28;20050;-75
2022/12/13 03:57:18;;;;;;;20.63;11.17;;;;;;;-2.08;93.05;100315.22;5026877;28;20029;-75
2022/12/13 03:59:43;;;;;;;19.73;11.40;;;;;;;-2.02;92.53;100319.75;5025382;28;20075;-75
2022/12/13 04:02:09;;;;;;;18.53;11.73;;;;;;;-1.99;93.20;100317.31;5022621;28;20042;-75
2022/12/13 04:04:34;;;;;;;18.17;11.10;;;;;;;-2.00;92.73;100315.53;5025718;28;20128;-75
2022/12/13 04:06:59;;;;;;;18.50;10.63;;;;;;;-1.99;93.25;100310.44;5022470;28;20120;-75
2022/12/13 04:09:24;;;;;;;19.67;12.03;;;;;;;-1.91;93.42;100308.16;5024597;28;20067;-75
2022/12/13 04:14:34;;;;;;;20.23;12.10;;;;;;;-1.85;93.02;100313.56;5020376;28;20095;-76
2022/12/13 04:16:59;;;;;;;20.63;11.80;;;;;;;-1.93;92.52;100312.38;5019478;28;20041;-75
2022/12/13 04:19:24;;;;;;;23.30;13.10;;;;;;;-1.93;92.47;100311.50;5022837;28;20868;-75
2022/12/13 04:21:52;;;;;;;19.07;10.87;;;;;;;-1.87;93.48;100310.03;5024651;28;20439;-75
2022/12/13 04:24:18;;;;;;;21.27;11.60;;;;;;;-1.96;92.48;100312.28;5021952;28;20116;-75
2022/12/13 04:26:43;;;;;;;20.20;11.60;;;;;;;-1.92;92.08;100306.38;5027817;28;20606;-75
2022/12/13 04:29:09;;;;;;;23.40;13.37;;;;;;;-1.86;92.64;100310.91;5023017;28;20034;-74
2022/12/13 04:31:34;;;;;;;21.77;11.77;;;;;;;-1.79;91.82;100307.75;5024493;28;20045;-75
2022/12/13 04:33:59;;;;;;;24.87;12.57;;;;;;;-1.83;92.69;100317.13;5023120;28;20152;-75
2022/12/13 04:36:25;;;;;;;19.00;11.50;;;;;;;-1.85;93.21;100318.75;5022615;28;20044;-75
2022/12/13 04:38:50;;;;;;;19.50;11.43;;;;;;;-1.84;92.84;100315.34;5021701;28;20034;-75
2022/12/13 04:41:18;;;;;;;16.33;9.70;;;;;;;-1.85;92.12;100321.34;5025414;28;20049;-75
2022/12/13 04:43:48;;;;;;;18.93;10.57;;;;;;;-1.95;91.57;100319.19;5024155;28;20492;-75
2022/12/13 04:46:14;;;;;;;16.77;10.07;;;;;;;-1.96;91.05;100319.16;5023440;28;20034;-75
2022/12/13 04:48:39;;;;;;;16.67;9.93;;;;;;;-1.98;91.46;100324.25;5022198;28;20050;-75
2022/12/13 04:51:04;;;;;;;14.90;9.40;;;;;;;-2.06;89.99;100317.88;5022774;28;20041;-75
2022/12/13 04:53:30;;;;;;;15.00;8.77;;;;;;;-2.02;90.17;100330.09;5021484;28;20049;-75
2022/12/13 04:55:55;;;;;;;14.97;8.77;;;;;;;-2.03;89.75;100318.88;5024786;28;20045;-75
2022/12/13 04:58:21;;;;;;;14.20;8.80;;;;;;;-2.00;90.55;100312.94;5023638;28;20053;-76
2022/12/13 05:00:46;;;;;;;13.70;8.43;;;;;;;-2.14;88.98;100324.44;5020402;28;20509;-75
2022/12/13 05:03:11;;;;;;;15.17;9.17;;;;;;;-2.22;89.60;100318.97;5023773;28;20487;-75
2022/12/13 05:05:39;;;;;;;15.43;9.33;;;;;;;-2.27;90.27;100316.16;5021493;28;20038;-76
2022/12/13 05:08:04;;;;;;;17.03;9.43;;;;;;;-2.16;90.79;100318.31;5024433;28;20045;-74
2022/12/13 05:10:30;;;;;;;14.93;8.87;;;;;;;-2.07;90.81;100317.00;5021757;28;20041;-74
2022/12/13 05:12:55;;;;;;;14.50;9.03;;;;;;;-2.04;90.01;100321.44;5023259;28;20037;-75
2022/12/13 05:15:20;;;;;;;13.57;8.50;;;;;;;-2.00;90.04;100323.28;5020694;28;20044;-75
2022/12/13 05:17:46;;;;;;;13.60;8.17;;;;;;;-1.95;90.42;100315.72;5023248;28;20029;-75
2022/12/13 05:20:11;;;;;;;15.23;9.20;;;;;;;-1.91;89.97;100313.34;5021570;28;20045;-75
2022/12/13 05:22:36;;;;;;;12.50;7.53;;;;;;;-1.88;88.80;100320.34;5021089;28;20038;-75
2022/12/13 05:25:03;;;;;;;15.13;9.10;;;;;;;-1.88;88.84;100317.75;5024024;28;20404;-75
2022/12/13 05:27:28;;;;;;;12.93;8.03;;;;;;;-1.90;88.93;100325.44;5023910;28;20038;-75
2022/12/13 05:29:54;;;;;;;117.27;59.20;;;;;;;-1.88;89.21;100318.63;5022293;28;20041;-75
2022/12/13 05:32:19;;;;;;;23.87;13.87;;;;;;;-1.82;89.39;100320.59;5017548;28;20038;-76
2022/12/13 05:34:45;;;;;;;17.73;10.17;;;;;;;-1.85;88.84;100328.22;5015765;28;20048;-75
2022/12/13 05:37:10;;;;;;;14.33;8.73;;;;;;;-1.96;89.24;100325.19;5014130;28;20045;-76
2022/12/13 05:39:35;;;;;;;15.87;8.97;;;;;;;-1.99;89.69;100333.72;5016839;28;20038;-75
2022/12/13 05:42:01;;;;;;;15.40;9.47;;;;;;;-1.98;89.05;100327.72;5016246;28;20103;-75
2022/12/13 05:44:26;;;;;;;13.73;9.00;;;;;;;-2.03;89.47;100328.34;5018069;28;20026;-75
2022/12/13 05:46:51;;;;;;;14.67;8.60;;;;;;;-2.00;89.75;100323.28;5016513;28;20046;-75
2022/12/13 05:49:17;;;;;;;14.00;8.73;;;;;;;-2.04;89.67;100324.00;5015641;28;20037;-75
2022/12/13 05:51:42;;;;;;;15.23;8.97;;;;;;;-2.00;90.03;100328.47;5013866;28;20049;-75
2022/12/13 05:54:07;;;;;;;16.97;10.73;;;;;;;-2.03;89.58;100328.34;5015343;28;20041;-75
2022/12/13 05:56:32;;;;;;;17.00;9.90;;;;;;;-2.00;91.05;100328.47;5021106;28;20038;-75
2022/12/13 05:58:59;;;;;;;18.77;10.17;;;;;;;-1.95;90.29;100321.78;5021848;28;20033;-75
2022/12/13 06:01:24;;;;;;;22.43;12.70;;;;;;;-1.97;89.21;100328.59;5019085;28;20034;-75
2022/12/13 06:03:50;;;;;;;18.50;11.07;;;;;;;-2.02;89.91;100324.94;5020331;28;20041;-75
2022/12/13 06:06:17;;;;;;;13.83;8.53;;;;;;;-2.03;90.02;100324.06;5021419;28;20183;-75
2022/12/13 06:08:42;;;;;;;16.70;9.17;;;;;;;-2.05;89.53;100329.97;5019413;28;20077;-75
2022/12/13 06:11:08;;;;;;;14.80;8.77;;;;;;;-2.06;90.78;100325.66;5022565;28;20138;-76
2022/12/13 06:13:33;;;;;;;13.53;7.77;;;;;;;-2.05;90.79;100324.81;5020508;28;20059;-75
2022/12/13 06:16:04;;;;;;;14.90;8.87;;;;;;;-1.98;91.75;100332.00;5021156;28;20128;-75
2022/12/13 06:18:31;;;;;;;14.70;8.60;;;;;;;-1.87;91.03;100329.84;5022881;28;20052;-74
2022/12/13 06:20:59;;;;;;;18.87;10.23;;;;;;;-1.81;90.39;100335.25;5023329;28;20038;-75
2022/12/13 06:23:25;;;;;;;13.87;8.60;;;;;;;-1.75;90.49;100340.72;5018619;28;20473;-75
2022/12/13 06:25:50;;;;;;;13.60;8.70;;;;;;;-1.81;90.04;100336.19;5016288;28;20045;-75
2022/12/13 06:28:16;;;;;;;13.03;8.23;;;;;;;-1.79;90.13;100339.69;5015065;28;20436;-75
2022/12/13 06:30:42;;;;;;;14.70;8.83;;;;;;;-1.84;88.84;100337.72;5020611;28;20411;-75
2022/12/13 06:33:07;;;;;;;13.03;7.63;;;;;;;-1.94;88.24;100331.28;5017540;28;20041;-75
2022/12/13 06:35:33;;;;;;;11.83;7.33;;;;;;;-2.13;87.25;100336.53;5022443;28;20041;-75
2022/12/13 06:37:58;;;;;;;12.23;6.73;;;;;;;-2.31;86.60;100337.53;5017261;28;20130;-75
2022/12/13 06:40:24;;;;;;;10.97;7.13;;;;;;;-2.29;86.95;100345.38;5017707;28;20030;-75
2022/12/13 06:42:50;;;;;;;10.77;6.90;;;;;;;-2.41;85.51;100348.31;5019146;28;20555;-75
2022/12/13 06:45:15;;;;;;;12.53;8.47;;;;;;;-2.38;86.57;100355.28;5020450;28;20040;-75
2022/12/13 06:47:40;;;;;;;11.03;6.63;;;;;;;-2.36;85.60;100358.84;5020707;28;20042;-75
2022/12/13 06:50:06;;;;;;;13.30;7.50;;;;;;;-2.50;84.17;100358.25;5021526;28;20029;-75
2022/12/13 06:52:31;;;;;;;12.67;7.80;;;;;;;-2.62;85.13;100360.28;5023063;28;20117;-75
2022/12/13 06:54:56;;;;;;;11.83;7.13;;;;;;;-2.65;85.71;100361.03;5019742;28;20406;-75
2022/12/13 06:57:22;;;;;;;13.77;7.87;;;;;;;-2.70;85.33;100366.03;5022539;28;20084;-75
2022/12/13 06:59:47;;;;;;;13.10;6.93;;;;;;;-2.72;85.67;100359.91;5022696;28;20046;-75
2022/12/13 07:02:12;;;;;;;14.13;7.37;;;;;;;-2.67;85.15;100368.75;5026335;28;20458;-75
2022/12/13 07:04:39;;;;;;;13.03;8.43;;;;;;;-2.61;85.02;100372.41;5023636;28;20374;-75
2022/12/13 07:07:04;;;;;;;14.73;8.43;;;;;;;-2.62;85.75;100379.28;5026551;28;20033;-75
2022/12/13 07:09:30;;;;;;;18.83;15.50;;;;;;;-2.57;84.80;100379.47;5024135;28;20488;-75
2022/12/13 07:11:55;;;;;;;13.47;8.03;;;;;;;-2.61;85.30;100381.03;5020099;28;20042;-75
2022/12/13 07:14:21;;;;;;;20.57;8.93;;;;;;;-2.68;84.25;100374.69;5025038;28;20393;-75
2022/12/13 07:16:46;;;;;;;13.93;8.23;;;;;;;-2.70;84.29;100380.63;5023942;28;20133;-75
2022/12/13 07:19:11;;;;;;;16.80;9.30;;;;;;;-2.70;84.54;100378.03;5026257;28;20045;-75
2022/12/13 07:21:38;;;;;;;90.77;85.40;;;;;;;-2.74;84.53;100370.97;5021427;28;20049;-75
2022/12/13 07:24:04;;;;;;;15.83;8.53;;;;;;;-2.72;85.80;100367.66;5025650;28;20064;-75
2022/12/13 07:26:29;;;;;;;14.57;8.83;;;;;;;-2.68;85.95;100372.13;5026148;28;20041;-75
2022/12/13 07:28:55;;;;;;;17.60;9.17;;;;;;;-2.77;85.71;100376.91;5032657;22;20142;-73
2022/12/13 07:31:22;;;;;;;17.47;9.13;;;;;;;-2.83;85.63;100384.34;5006898;28;20030;-73
2022/12/13 07:33:48;;;;;;;185.60;166.87;;;;;;;-2.84;84.74;100380.00;5006409;28;20037;-73
2022/12/13 07:36:16;;;;;;;7.80;5.50;;;;;;;-2.83;84.84;100380.88;5002878;28;20035;-73
2022/12/13 07:38:42;;;;;;;6.80;4.47;;;;;;;-2.91;84.42;100383.13;5005626;28;20120;-73
2022/12/13 07:41:08;;;;;;;6.60;4.77;;;;;;;-3.01;83.98;100386.09;5007050;28;20121;-73
2022/12/13 07:43:34;;;;;;;7.43;5.20;;;;;;;-2.98;85.33;100389.72;5002893;28;20068;-73
2022/12/13 07:46:02;;;;;;;9.23;6.23;;;;;;;-3.01;83.71;100389.59;5000316;28;20030;-74
2022/12/13 07:48:28;;;;;;;7.77;5.40;;;;;;;-3.10;84.30;100390.03;5002483;28;20487;-73
2022/12/13 07:50:59;;;;;;;9.07;5.73;;;;;;;-3.31;84.12;100396.78;5006763;28;20034;-73
2022/12/13 07:53:24;;;;;;;7.80;5.27;;;;;;;-3.60;85.07;100397.97;5004477;28;20382;-74
2022/12/13 07:55:49;;;;;;;8.67;6.10;;;;;;;-3.62;85.12;100394.41;5003776;28;20062;-73
2022/12/13 07:58:15;;;;;;;8.90;5.90;;;;;;;-3.68;84.99;100405.34;5004270;28;20037;-74
2022/12/13 08:00:43;;;;;;;8.80;5.73;;;;;;;-3.79;85.45;100409.09;5009005;28;20041;-73
2022/12/13 08:03:08;;;;;;;6.97;4.73;;;;;;;-3.85;85.44;100406.19;4997431;28;20142;-73
2022/12/13 08:05:38;;;;;;;8.53;5.63;;;;;;;-3.88;85.12;100404.34;5002482;28;20129;-73
2022/12/13 08:08:06;;;;;;;9.67;5.50;;;;;;;-3.85;85.50;100411.34;5003518;28;20034;-74
2022/12/13 08:10:31;;;;;;;9.10;5.43;;;;;;;-3.93;85.17;100399.78;5008124;28;20030;-73
2022/12/13 08:12:57;;;;;;;9.67;5.90;;;;;;;-3.93;85.66;100403.25;5002730;28;20038;-73
2022/12/13 08:15:23;;;;;;;9.97;6.73;;;;;;;-4.06;85.71;100398.28;5004803;28;20064;-73
2022/12/13 08:17:48;;;;;;;8.00;5.47;;;;;;;-4.15;86.16;100398.69;5005012;28;20042;-73
2022/12/13 08:20:14;;;;;;;6.97;4.93;;;;;;;-4.24;86.02;100405.97;5004303;28;20034;-73
2022/12/13 08:22:40;;;;;;;8.50;5.43;;;;;;;-4.38;85.74;100400.09;5004874;28;20083;-73
2022/12/13 08:25:06;;;;;;;7.03;4.40;;;;;;;-4.40;86.34;100394.00;5001715;28;20505;-73
2022/12/13 08:27:31;;;;;;;9.83;5.37;;;;;;;-4.40;85.89;100399.16;5003737;28;20042;-73
2022/12/13 08:29:57;;;;;;;8.80;5.57;;;;;;;-4.45;85.91;100391.19;5000436;28;20034;-73
2022/12/13 08:32:23;;;;;;;8.37;5.57;;;;;;;-4.46;85.79;100397.13;5003371;28;20034;-73
2022/12/13 08:34:48;;;;;;;8.47;5.87;;;;;;;-4.44;86.58;100400.69;5003484;28;20088;-73
2022/12/13 08:37:14;;;;;;;7.97;5.13;;;;;;;-4.38;86.02;100407.84;5004482;28;20030;-73
2022/12/13 08:39:39;;;;;;;7.70;4.73;;;;;;;-4.43;86.11;100412.78;5002645;28;20034;-73
2022/12/13 08:42:09;;;;;;;8.73;5.60;;;;;;;-4.44;85.81;100407.53;5005695;28;20077;-72
2022/12/13 08:44:34;;;;;;;8.17;5.33;;;;;;;-4.50;86.17;100413.25;5004322;28;20061;-73
2022/12/13 08:46:59;;;;;;;9.10;6.10;;;;;;;-4.54;85.90;100411.31;5003392;28;20479;-74
2022/12/13 08:49:25;;;;;;;8.63;5.33;;;;;;;-4.56;86.02;100409.44;5003137;28;20508;-73
2022/12/13 08:51:50;;;;;;;9.00;5.60;;;;;;;-4.57;87.04;100406.00;5005258;28;20070;-73
2022/12/13 08:54:15;;;;;;;9.17;5.80;;;;;;;-4.52;86.88;100409.69;4999348;28;20072;-73
2022/12/13 08:56:41;;;;;;;8.00;5.37;;;;;;;-4.47;87.04;100409.94;5006176;28;20026;-73
2022/12/13 08:59:06;;;;;;;10.70;6.73;;;;;;;-4.52;86.62;100414.84;5002519;28;20025;-73
2022/12/13 09:01:32;;;;;;;8.70;5.00;;;;;;;-4.51;85.71;100416.59;4999699;28;20034;-73
2022/12/13 09:03:57;;;;;;;7.43;5.07;;;;;;;-4.56;85.80;100419.75;5001999;28;20041;-73
2022/12/13 09:06:23;;;;;;;8.10;5.40;;;;;;;-4.66;85.69;100408.09;4967192;28;20501;-73
2022/12/13 09:08:48;;;;;;;8.93;5.23;;;;;;;-4.68;85.76;100412.28;5003390;28;20109;-73
2022/12/13 09:11:13;;;;;;;8.50;5.27;;;;;;;-4.73;85.83;100414.59;5004120;28;20464;-73
2022/12/13 09:13:39;;;;;;;8.97;5.70;;;;;;;-4.73;85.34;100418.88;5003894;28;20492;-73
2022/12/13 09:16:08;;;;;;;6.83;4.53;;;;;;;-4.74;86.10;100418.00;4991043;28;20043;-73
2022/12/13 09:18:33;;;;;;;10.00;6.37;;;;;;;-4.79;85.77;100413.38;5003160;28;20041;-73
2022/12/13 09:20:58;;;;;;;8.20;5.23;;;;;;;-4.74;85.69;100414.50;5003084;28;20034;-73
2022/12/13 09:23:24;;;;;;;7.67;5.33;;;;;;;-4.77;85.54;100411.78;5000998;28;20050;-73
2022/12/13 09:25:54;;;;;;;9.47;5.30;;;;;;;-4.78;85.83;100416.06;5004340;28;20048;-73
2022/12/13 09:28:19;;;;;;;7.57;5.07;;;;;;;-4.75;85.62;100407.59;5002685;28;20128;-73
2022/12/13 09:30:44;;;;;;;7.93;5.27;;;;;;;-4.70;85.14;100414.75;4986803;28;20121;-73
2022/12/13 09:33:10;;;;;;;9.67;6.30;;;;;;;-4.71;85.52;100420.72;5001790;28;20033;-73
2022/12/13 09:35:37;;;;;;;8.03;4.83;;;;;;;-4.69;85.79;100410.50;5003728;28;20026;-73
2022/12/13 09:38:02;;;;;;;8.73;5.00;;;;;;;-4.74;85.35;100415.44;5001320;28;20524;-73
2022/12/13 09:40:28;;;;;;;8.97;4.90;;;;;;;-4.66;86.05;100415.84;5004107;28;20038;-73
2022/12/13 09:42:56;;;;;;;7.63;4.73;;;;;;;-4.63;85.55;100411.72;5002059;28;20061;-73
2022/12/13 09:45:22;;;;;;;9.13;5.63;;;;;;;-4.55;84.94;100406.97;4984517;28;20056;-74
2022/12/13 09:47:50;;;;;;;10.23;6.03;;;;;;;-4.47;84.66;100405.69;4998693;28;20477;-73
2022/12/13 09:50:29;;;;;;;10.27;6.20;;;;;;;-4.38;85.16;100405.25;5003536;28;20381;-73
2022/12/13 09:52:56;;;;;;;9.33;5.60;;;;;;;-4.36;84.42;100405.34;5001259;28;20123;-73
2022/12/13 09:55:24;;;;;;;7.80;5.00;;;;;;;-4.27;84.47;100398.06;5000888;28;20465;-73
2022/12/13 09:57:51;;;;;;;10.50;6.67;;;;;;;-4.20;83.88;100395.00;4998972;28;20065;-74
2022/12/13 10:00:19;;;;;;;9.23;6.33;;;;;;;-4.21;83.42;100390.66;5004446;28;20041;-73
2022/12/13 10:02:48;;;;;;;8.50;5.93;;;;;;;-4.20;83.59;100393.31;5002172;28;20037;-73
2022/12/13 10:05:21;;;;;;;9.63;6.27;;;;;;;-4.25;83.43;100388.72;5003169;28;20060;-73
2022/12/13 10:07:47;;;;;;;11.30;6.00;;;;;;;-4.16;83.40;100389.22;4997692;28;20092;-73
2022/12/13 10:10:13;;;;;;;10.90;6.33;;;;;;;-4.14;83.33;100381.53;5004294;28;20448;-73
2022/12/13 10:12:46;;;;;;;9.60;6.30;;;;;;;-4.08;83.62;100379.28;5001869;28;20046;-73
2022/12/13 10:15:18;;;;;;;11.40;7.70;;;;;;;-4.11;83.79;100377.44;5003670;28;20548;-73
2022/12/13 10:17:47;;;;;;;8.20;5.13;;;;;;;-4.05;83.87;100379.44;5001402;28;20037;-74
2022/12/13 10:20:19;;;;;;;10.27;6.93;;;;;;;-4.07;82.70;100383.63;4996791;28;20527;-73
2022/12/13 10:22:45;;;;;;;8.63;5.80;;;;;;;-4.05;83.63;100379.44;4969428;28;20587;-73
2022/12/13 10:25:11;;;;;;;8.40;5.70;;;;;;;-4.01;83.24;100384.81;5002594;28;20034;-73
2022/12/13 10:27:39;;;;;;;9.27;5.23;;;;;;;-4.05;83.56;100376.84;5003097;28;20030;-73
2022/12/13 10:30:18;;;;;;;8.50;5.33;;;;;;;-3.89;83.42;100370.75;5002391;28;20493;-73
2022/12/13 10:32:52;;;;;;;8.43;5.57;;;;;;;-3.80;82.43;100366.03;4998997;28;20030;-73
2022/12/13 10:35:26;;;;;;;6.93;4.57;;;;;;;-3.73;82.24;100374.97;4993780;28;20042;-73
2022/12/13 10:37:52;;;;;;;8.17;5.70;;;;;;;-3.71;81.87;100370.78;4996613;28;20034;-73
2022/12/13 10:40:44;;;;;;;8.17;5.60;;;;;;;-3.64;82.09;100367.66;5001393;28;20038;-74
2022/12/13 10:43:19;;;;;;;6.70;4.57;;;;;;;-3.60;82.12;100364.44;4998639;28;20035;-74
2022/12/13 10:45:56;;;;;;;5.90;4.30;;;;;;;-3.61;81.81;100366.13;4997468;28;20488;-73
2022/12/13 10:48:38;;;;;;;8.10;5.17;;;;;;;-3.58;82.41;100365.41;5001203;28;20042;-73
2022/12/13 10:51:06;;;;;;;8.20;5.70;;;;;;;-3.61;82.57;100360.97;4996632;28;20116;-73
2022/12/13 10:53:50;;;;;;;8.20;5.50;;;;;;;-3.51;83.10;100362.31;5001428;28;20042;-73
2022/12/13 10:56:17;;;;;;;7.90;4.83;;;;;;;-3.47;81.60;100360.75;5000346;28;20061;-74
2022/12/13 10:58:45;;;;;;;8.50;5.63;;;;;;;-3.43;82.20;100366.13;5000180;28;20400;-73
2022/12/13 11:01:22;;;;;;;8.17;5.70;;;;;;;-3.38;81.87;100361.16;4998675;28;20042;-73
2022/12/13 11:03:59;;;;;;;7.47;5.43;;;;;;;-3.40;82.52;100355.94;4986624;28;20529;-73
2022/12/13 11:06:26;;;;;;;6.97;4.33;;;;;;;-3.29;82.85;100358.16;4996144;28;20555;-73
2022/12/13 11:08:53;;;;;;;8.07;5.57;;;;;;;-3.21;82.01;100351.63;4996472;28;20405;-73
2022/12/13 11:11:27;;;;;;;6.87;4.43;;;;;;;-3.15;82.25;100347.63;5001549;28;20049;-74
2022/12/13 11:13:55;;;;;;;7.40;4.87;;;;;;;-3.17;82.00;100343.19;4999453;28;20485;-74
2022/12/13 11:16:31;;;;;;;7.43;4.60;;;;;;;-3.14;81.89;100345.94;4997504;28;20055;-73
2022/12/13 11:19:02;;;;;;;6.67;4.77;;;;;;;-3.17;81.17;100341.53;5002175;28;20089;-73
2022/12/13 11:21:31;;;;;;;6.43;4.57;;;;;;;-3.09;81.14;100341.88;5003147;28;20072;-73
2022/12/13 11:24:01;;;;;;;6.77;4.70;;;;;;;-3.06;81.24;100343.72;4995858;28;20049;-73
2022/12/13 11:26:27;;;;;;;6.40;4.20;;;;;;;-3.00;81.61;100336.25;5003032;28;20392;-73